sensor_id;sensor_type;location;lat;lon;timestamp;temperature;humidity
14850;DHT22;7517;48.400;11.770;2023-08-07T00:01:45;17.60;68.40
14850;DHT22;7517;48.400;11.770;2023-08-07T00:04:12;17.60;68.40
14850;DHT22;7517;48.400;11.770;2023-08-07T00:06:40;17.60;68.50
14850;DHT22;7517;48.400;11.770;2023-08-07T00:09:07;17.50;68.50
14850;DHT22;7517;48.400;11.770;2023-08-07T00:11:34;17.50;69.30
14850;DHT22;7517;48.400;11.770;2023-08-07T00:14:02;17.50;68.60
14850;DHT22;7517;48.400;11.770;2023-08-07T00:16:32;17.50;68.70
14850;DHT22;7517;48.400;11.770;2023-08-07T00:18:59;17.50;68.90
14850;DHT22;7517;48.400;11.770;2023-08-07T00:21:26;17.40;68.90
14850;DHT22;7517;48.400;11.770;2023-08-07T00:23:53;17.40;69.00
14850;DHT22;7517;48.400;11.770;2023-08-07T00:26:21;17.40;69.10
14850;DHT22;7517;48.400;11.770;2023-08-07T00:28:48;17.40;69.40
14850;DHT22;7517;48.400;11.770;2023-08-07T00:31:16;17.30;69.60
14850;DHT22;7517;48.400;11.770;2023-08-07T00:33:45;17.30;69.70
14850;DHT22;7517;48.400;11.770;2023-08-07T00:36:12;17.30;69.90
14850;DHT22;7517;48.400;11.770;2023-08-07T00:38:39;17.30;70.10
14850;DHT22;7517;48.400;11.770;2023-08-07T00:41:07;17.20;70.00
14850;DHT22;7517;48.400;11.770;2023-08-07T00:43:35;17.20;70.20
14850;DHT22;7517;48.400;11.770;2023-08-07T00:46:02;17.20;70.20
14850;DHT22;7517;48.400;11.770;2023-08-07T00:48:31;17.10;70.30
14850;DHT22;7517;48.400;11.770;2023-08-07T00:51:00;17.10;70.60
14850;DHT22;7517;48.400;11.770;2023-08-07T00:53:30;17.10;70.70
14850;DHT22;7517;48.400;11.770;2023-08-07T00:55:57;17.00;70.70
14850;DHT22;7517;48.400;11.770;2023-08-07T00:58:25;17.00;71.00
14850;DHT22;7517;48.400;11.770;2023-08-07T01:00:53;16.90;71.30
14850;DHT22;7517;48.400;11.770;2023-08-07T01:03:20;16.90;71.80
14850;DHT22;7517;48.400;11.770;2023-08-07T01:05:47;16.90;72.10
14850;DHT22;7517;48.400;11.770;2023-08-07T01:08:16;16.80;72.60
14850;DHT22;7517;48.400;11.770;2023-08-07T01:11:07;16.80;72.60
14850;DHT22;7517;48.400;11.770;2023-08-07T01:13:47;16.70;72.90
14850;DHT22;7517;48.400;11.770;2023-08-07T01:16:28;16.70;73.00
14850;DHT22;7517;48.400;11.770;2023-08-07T01:19:00;16.70;73.10
14850;DHT22;7517;48.400;11.770;2023-08-07T01:21:28;16.60;73.20
14850;DHT22;7517;48.400;11.770;2023-08-07T01:23:57;16.60;73.30
14850;DHT22;7517;48.400;11.770;2023-08-07T01:26:24;16.60;73.80
14850;DHT22;7517;48.400;11.770;2023-08-07T01:28:57;16.50;74.00
14850;DHT22;7517;48.400;11.770;2023-08-07T01:31:32;16.50;74.50
14850;DHT22;7517;48.400;11.770;2023-08-07T01:34:04;16.50;74.60
14850;DHT22;7517;48.400;11.770;2023-08-07T01:36:34;16.40;74.80
14850;DHT22;7517;48.400;11.770;2023-08-07T01:39:05;16.40;74.90
14850;DHT22;7517;48.400;11.770;2023-08-07T01:41:35;16.40;75.00
14850;DHT22;7517;48.400;11.770;2023-08-07T01:44:03;16.30;74.90
14850;DHT22;7517;48.400;11.770;2023-08-07T01:46:32;16.30;75.10
14850;DHT22;7517;48.400;11.770;2023-08-07T01:48:59;16.30;75.30
14850;DHT22;7517;48.400;11.770;2023-08-07T01:51:26;16.20;75.20
14850;DHT22;7517;48.400;11.770;2023-08-07T01:53:54;16.20;75.30
14850;DHT22;7517;48.400;11.770;2023-08-07T01:56:23;16.20;75.50
14850;DHT22;7517;48.400;11.770;2023-08-07T01:58:50;16.20;75.80
14850;DHT22;7517;48.400;11.770;2023-08-07T02:01:17;16.10;75.80
14850;DHT22;7517;48.400;11.770;2023-08-07T02:03:45;16.10;76.00
14850;DHT22;7517;48.400;11.770;2023-08-07T02:06:12;16.10;76.10
14850;DHT22;7517;48.400;11.770;2023-08-07T02:08:40;16.00;76.10
14850;DHT22;7517;48.400;11.770;2023-08-07T02:11:07;16.00;77.00
14850;DHT22;7517;48.400;11.770;2023-08-07T02:13:36;16.00;76.40
14850;DHT22;7517;48.400;11.770;2023-08-07T02:16:03;16.00;76.50
14850;DHT22;7517;48.400;11.770;2023-08-07T02:18:31;16.00;76.60
14850;DHT22;7517;48.400;11.770;2023-08-07T02:20:58;16.00;76.60
14850;DHT22;7517;48.400;11.770;2023-08-07T02:23:26;16.00;76.70
14850;DHT22;7517;48.400;11.770;2023-08-07T02:25:54;16.00;76.90
14850;DHT22;7517;48.400;11.770;2023-08-07T02:28:21;16.00;76.90
14850;DHT22;7517;48.400;11.770;2023-08-07T02:30:51;16.00;76.90
14850;DHT22;7517;48.400;11.770;2023-08-07T02:33:19;16.00;77.00
14850;DHT22;7517;48.400;11.770;2023-08-07T02:35:47;16.00;76.90
14850;DHT22;7517;48.400;11.770;2023-08-07T02:38:16;16.00;77.00
14850;DHT22;7517;48.400;11.770;2023-08-07T02:40:43;15.90;76.90
14850;DHT22;7517;48.400;11.770;2023-08-07T02:43:11;15.90;76.90
14850;DHT22;7517;48.400;11.770;2023-08-07T02:45:38;15.90;77.00
14850;DHT22;7517;48.400;11.770;2023-08-07T02:48:07;15.90;77.20
14850;DHT22;7517;48.400;11.770;2023-08-07T02:50:35;15.80;77.20
14850;DHT22;7517;48.400;11.770;2023-08-07T02:53:03;16.00;77.60
14850;DHT22;7517;48.400;11.770;2023-08-07T02:55:30;15.80;77.70
14850;DHT22;7517;48.400;11.770;2023-08-07T02:57:57;15.80;77.80
14850;DHT22;7517;48.400;11.770;2023-08-07T03:00:24;15.80;77.70
14850;DHT22;7517;48.400;11.770;2023-08-07T03:02:51;15.80;77.60
14850;DHT22;7517;48.400;11.770;2023-08-07T03:05:20;15.80;77.70
14850;DHT22;7517;48.400;11.770;2023-08-07T03:07:48;15.80;77.80
14850;DHT22;7517;48.400;11.770;2023-08-07T03:10:15;15.80;77.90
14850;DHT22;7517;48.400;11.770;2023-08-07T03:12:42;15.80;77.90
14850;DHT22;7517;48.400;11.770;2023-08-07T03:15:10;15.80;77.80
14850;DHT22;7517;48.400;11.770;2023-08-07T03:17:37;15.80;77.90
14850;DHT22;7517;48.400;11.770;2023-08-07T03:20:06;15.80;78.00
14850;DHT22;7517;48.400;11.770;2023-08-07T03:22:36;15.80;78.20
14850;DHT22;7517;48.400;11.770;2023-08-07T03:25:04;15.80;78.20
14850;DHT22;7517;48.400;11.770;2023-08-07T03:27:32;15.80;78.10
14850;DHT22;7517;48.400;11.770;2023-08-07T03:29:59;15.80;78.20
14850;DHT22;7517;48.400;11.770;2023-08-07T03:32:27;15.80;78.20
14850;DHT22;7517;48.400;11.770;2023-08-07T03:34:54;15.80;78.20
14850;DHT22;7517;48.400;11.770;2023-08-07T03:37:22;15.80;78.30
14850;DHT22;7517;48.400;11.770;2023-08-07T03:39:51;15.70;78.20
14850;DHT22;7517;48.400;11.770;2023-08-07T03:42:19;15.80;78.50
14850;DHT22;7517;48.400;11.770;2023-08-07T03:44:46;15.80;78.60
14850;DHT22;7517;48.400;11.770;2023-08-07T03:47:13;15.80;78.50
14850;DHT22;7517;48.400;11.770;2023-08-07T03:49:40;15.70;78.50
14850;DHT22;7517;48.400;11.770;2023-08-07T03:52:08;15.70;78.70
14850;DHT22;7517;48.400;11.770;2023-08-07T03:54:35;15.70;78.70
14850;DHT22;7517;48.400;11.770;2023-08-07T03:57:05;15.70;78.80
14850;DHT22;7517;48.400;11.770;2023-08-07T03:59:34;15.70;78.70
14850;DHT22;7517;48.400;11.770;2023-08-07T04:02:01;15.70;78.50
14850;DHT22;7517;48.400;11.770;2023-08-07T04:04:28;15.70;78.50
14850;DHT22;7517;48.400;11.770;2023-08-07T04:06:55;15.70;78.60
14850;DHT22;7517;48.400;11.770;2023-08-07T04:09:23;15.60;78.50
14850;DHT22;7517;48.400;11.770;2023-08-07T04:11:50;15.60;78.70
14850;DHT22;7517;48.400;11.770;2023-08-07T04:14:19;15.60;79.00
14850;DHT22;7517;48.400;11.770;2023-08-07T04:16:47;15.60;79.10
14850;DHT22;7517;48.400;11.770;2023-08-07T04:19:14;15.60;79.00
14850;DHT22;7517;48.400;11.770;2023-08-07T04:21:42;15.60;78.80
14850;DHT22;7517;48.400;11.770;2023-08-07T04:24:09;15.60;78.90
14850;DHT22;7517;48.400;11.770;2023-08-07T04:26:37;15.60;78.90
14850;DHT22;7517;48.400;11.770;2023-08-07T04:29:05;15.60;79.00
14850;DHT22;7517;48.400;11.770;2023-08-07T04:31:34;15.60;79.00
14850;DHT22;7517;48.400;11.770;2023-08-07T04:34:02;15.60;79.00
14850;DHT22;7517;48.400;11.770;2023-08-07T04:36:30;15.60;78.90
14850;DHT22;7517;48.400;11.770;2023-08-07T04:38:58;15.60;79.00
14850;DHT22;7517;48.400;11.770;2023-08-07T04:41:26;15.50;78.90
14850;DHT22;7517;48.400;11.770;2023-08-07T04:43:53;15.50;78.90
14850;DHT22;7517;48.400;11.770;2023-08-07T04:46:20;15.50;78.90
14850;DHT22;7517;48.400;11.770;2023-08-07T04:48:49;15.50;78.90
14850;DHT22;7517;48.400;11.770;2023-08-07T04:51:16;15.50;79.00
14850;DHT22;7517;48.400;11.770;2023-08-07T04:53:43;15.50;79.20
14850;DHT22;7517;48.400;11.770;2023-08-07T04:56:10;15.50;79.10
14850;DHT22;7517;48.400;11.770;2023-08-07T04:58:38;15.50;78.80
14850;DHT22;7517;48.400;11.770;2023-08-07T05:01:05;15.50;78.60
14850;DHT22;7517;48.400;11.770;2023-08-07T05:03:32;15.50;78.60
14850;DHT22;7517;48.400;11.770;2023-08-07T05:06:01;15.50;78.60
14850;DHT22;7517;48.400;11.770;2023-08-07T05:08:29;15.50;78.70
14850;DHT22;7517;48.400;11.770;2023-08-07T05:10:56;15.50;78.50
14850;DHT22;7517;48.400;11.770;2023-08-07T05:13:24;15.50;78.40
14850;DHT22;7517;48.400;11.770;2023-08-07T05:15:51;15.40;78.50
14850;DHT22;7517;48.400;11.770;2023-08-07T05:18:19;15.40;78.60
14850;DHT22;7517;48.400;11.770;2023-08-07T05:20:46;15.40;78.80
14850;DHT22;7517;48.400;11.770;2023-08-07T05:23:15;15.40;78.80
14850;DHT22;7517;48.400;11.770;2023-08-07T05:25:45;15.50;78.90
14850;DHT22;7517;48.400;11.770;2023-08-07T05:28:13;15.50;78.90
14850;DHT22;7517;48.400;11.770;2023-08-07T05:30:40;15.50;78.90
14850;DHT22;7517;48.400;11.770;2023-08-07T05:33:07;15.50;78.80
14850;DHT22;7517;48.400;11.770;2023-08-07T05:35:38;15.50;78.60
14850;DHT22;7517;48.400;11.770;2023-08-07T05:38:05;15.50;78.50
14850;DHT22;7517;48.400;11.770;2023-08-07T05:40:34;15.50;78.40
14850;DHT22;7517;48.400;11.770;2023-08-07T05:43:02;15.50;78.50
14850;DHT22;7517;48.400;11.770;2023-08-07T05:45:30;15.50;78.50
14850;DHT22;7517;48.400;11.770;2023-08-07T05:47:57;15.50;78.40
14850;DHT22;7517;48.400;11.770;2023-08-07T05:50:24;15.50;78.40
14850;DHT22;7517;48.400;11.770;2023-08-07T05:52:52;15.60;78.50
14850;DHT22;7517;48.400;11.770;2023-08-07T05:55:19;15.60;78.50
14850;DHT22;7517;48.400;11.770;2023-08-07T05:57:48;15.60;78.30
14850;DHT22;7517;48.400;11.770;2023-08-07T06:00:16;15.60;77.90
14850;DHT22;7517;48.400;11.770;2023-08-07T06:02:45;15.60;77.70
14850;DHT22;7517;48.400;11.770;2023-08-07T06:05:12;15.60;77.80
14850;DHT22;7517;48.400;11.770;2023-08-07T06:07:40;15.60;78.70
14850;DHT22;7517;48.400;11.770;2023-08-07T06:10:08;15.70;78.00
14850;DHT22;7517;48.400;11.770;2023-08-07T06:12:35;15.70;77.70
14850;DHT22;7517;48.400;11.770;2023-08-07T06:15:05;15.70;77.60
14850;DHT22;7517;48.400;11.770;2023-08-07T06:17:33;15.80;77.50
14850;DHT22;7517;48.400;11.770;2023-08-07T06:20:00;15.80;77.60
14850;DHT22;7517;48.400;11.770;2023-08-07T06:22:30;15.80;77.20
14850;DHT22;7517;48.400;11.770;2023-08-07T06:24:58;15.90;77.80
14850;DHT22;7517;48.400;11.770;2023-08-07T06:27:25;15.90;76.90
14850;DHT22;7517;48.400;11.770;2023-08-07T06:29:52;15.90;76.50
14850;DHT22;7517;48.400;11.770;2023-08-07T06:32:22;15.90;76.50
14850;DHT22;7517;48.400;11.770;2023-08-07T06:34:51;15.90;76.30
14850;DHT22;7517;48.400;11.770;2023-08-07T06:37:18;15.90;76.10
14850;DHT22;7517;48.400;11.770;2023-08-07T06:39:46;16.00;76.20
14850;DHT22;7517;48.400;11.770;2023-08-07T06:42:14;16.00;75.90
14850;DHT22;7517;48.400;11.770;2023-08-07T06:44:41;16.00;75.80
14850;DHT22;7517;48.400;11.770;2023-08-07T06:47:08;16.10;75.80
14850;DHT22;7517;48.400;11.770;2023-08-07T06:49:37;16.10;75.80
14850;DHT22;7517;48.400;11.770;2023-08-07T06:52:05;16.10;75.40
14850;DHT22;7517;48.400;11.770;2023-08-07T06:54:32;16.10;75.20
14850;DHT22;7517;48.400;11.770;2023-08-07T06:57:00;16.20;75.20
14850;DHT22;7517;48.400;11.770;2023-08-07T06:59:27;16.20;75.10
14850;DHT22;7517;48.400;11.770;2023-08-07T07:01:55;16.20;75.40
14850;DHT22;7517;48.400;11.770;2023-08-07T07:04:23;16.30;75.50
14850;DHT22;7517;48.400;11.770;2023-08-07T07:06:52;16.30;75.20
14850;DHT22;7517;48.400;11.770;2023-08-07T07:09:19;16.30;74.90
14850;DHT22;7517;48.400;11.770;2023-08-07T07:11:47;16.40;75.00
14850;DHT22;7517;48.400;11.770;2023-08-07T07:14:14;16.40;75.10
14850;DHT22;7517;48.400;11.770;2023-08-07T07:16:41;16.50;74.80
14850;DHT22;7517;48.400;11.770;2023-08-07T07:19:09;16.50;74.90
14850;DHT22;7517;48.400;11.770;2023-08-07T07:21:36;16.60;74.80
14850;DHT22;7517;48.400;11.770;2023-08-07T07:24:06;16.60;74.80
14850;DHT22;7517;48.400;11.770;2023-08-07T07:26:33;16.70;74.60
14850;DHT22;7517;48.400;11.770;2023-08-07T07:29:01;16.70;74.50
14850;DHT22;7517;48.400;11.770;2023-08-07T07:31:28;16.80;74.00
14850;DHT22;7517;48.400;11.770;2023-08-07T07:33:55;16.80;74.00
14850;DHT22;7517;48.400;11.770;2023-08-07T07:36:23;16.90;74.30
14850;DHT22;7517;48.400;11.770;2023-08-07T07:38:50;17.00;74.20
14850;DHT22;7517;48.400;11.770;2023-08-07T07:41:19;17.00;73.90
14850;DHT22;7517;48.400;11.770;2023-08-07T07:43:46;17.10;73.30
14850;DHT22;7517;48.400;11.770;2023-08-07T07:46:14;17.10;73.10
14850;DHT22;7517;48.400;11.770;2023-08-07T07:48:41;17.20;72.50
14850;DHT22;7517;48.400;11.770;2023-08-07T07:51:08;17.30;72.50
14850;DHT22;7517;48.400;11.770;2023-08-07T07:53:35;17.30;72.50
14850;DHT22;7517;48.400;11.770;2023-08-07T07:56:03;17.30;72.20
14850;DHT22;7517;48.400;11.770;2023-08-07T07:58:32;17.40;72.00
14850;DHT22;7517;48.400;11.770;2023-08-07T08:01:00;17.40;71.30
14850;DHT22;7517;48.400;11.770;2023-08-07T08:03:29;17.50;71.40
14850;DHT22;7517;48.400;11.770;2023-08-07T08:05:57;17.60;70.90
14850;DHT22;7517;48.400;11.770;2023-08-07T08:08:24;17.60;70.80
14850;DHT22;7517;48.400;11.770;2023-08-07T08:10:51;17.70;70.30
14850;DHT22;7517;48.400;11.770;2023-08-07T08:13:19;17.70;69.90
14850;DHT22;7517;48.400;11.770;2023-08-07T08:15:48;17.80;69.10
14850;DHT22;7517;48.400;11.770;2023-08-07T08:18:15;17.80;69.30
14850;DHT22;7517;48.400;11.770;2023-08-07T08:20:43;17.90;69.70
14850;DHT22;7517;48.400;11.770;2023-08-07T08:23:10;17.90;69.20
14850;DHT22;7517;48.400;11.770;2023-08-07T08:25:38;17.90;68.60
14850;DHT22;7517;48.400;11.770;2023-08-07T08:28:05;18.00;68.70
14850;DHT22;7517;48.400;11.770;2023-08-07T08:30:32;18.00;68.30
14850;DHT22;7517;48.400;11.770;2023-08-07T08:33:01;18.10;68.10
14850;DHT22;7517;48.400;11.770;2023-08-07T08:35:28;18.10;67.60
14850;DHT22;7517;48.400;11.770;2023-08-07T08:37:56;18.10;67.90
14850;DHT22;7517;48.400;11.770;2023-08-07T08:40:24;18.20;67.50
14850;DHT22;7517;48.400;11.770;2023-08-07T08:42:52;18.20;66.50
14850;DHT22;7517;48.400;11.770;2023-08-07T08:45:25;18.20;66.60
14850;DHT22;7517;48.400;11.770;2023-08-07T08:48:02;18.30;66.50
14850;DHT22;7517;48.400;11.770;2023-08-07T08:50:31;18.30;65.90
14850;DHT22;7517;48.400;11.770;2023-08-07T08:52:59;18.30;65.80
14850;DHT22;7517;48.400;11.770;2023-08-07T08:55:29;18.30;65.40
14850;DHT22;7517;48.400;11.770;2023-08-07T08:57:57;18.30;65.30
14850;DHT22;7517;48.400;11.770;2023-08-07T09:00:27;18.30;64.60
14850;DHT22;7517;48.400;11.770;2023-08-07T09:02:56;18.40;65.30
14850;DHT22;7517;48.400;11.770;2023-08-07T09:05:25;18.40;65.60
14850;DHT22;7517;48.400;11.770;2023-08-07T09:07:55;18.40;65.40
14850;DHT22;7517;48.400;11.770;2023-08-07T09:10:23;18.50;65.60
14850;DHT22;7517;48.400;11.770;2023-08-07T09:12:54;18.50;65.20
14850;DHT22;7517;48.400;11.770;2023-08-07T09:15:31;18.60;65.10
14850;DHT22;7517;48.400;11.770;2023-08-07T09:18:00;18.60;65.30
14850;DHT22;7517;48.400;11.770;2023-08-07T09:20:35;18.70;65.90
14850;DHT22;7517;48.400;11.770;2023-08-07T09:23:05;18.70;65.30
14850;DHT22;7517;48.400;11.770;2023-08-07T09:25:33;18.70;65.00
14850;DHT22;7517;48.400;11.770;2023-08-07T09:28:02;18.80;64.40
14850;DHT22;7517;48.400;11.770;2023-08-07T09:30:32;18.80;63.70
14850;DHT22;7517;48.400;11.770;2023-08-07T09:33:01;18.80;63.50
14850;DHT22;7517;48.400;11.770;2023-08-07T09:35:30;18.80;63.40
14850;DHT22;7517;48.400;11.770;2023-08-07T09:38:00;18.80;63.40
14850;DHT22;7517;48.400;11.770;2023-08-07T09:40:29;18.90;63.20
14850;DHT22;7517;48.400;11.770;2023-08-07T09:42:57;18.90;63.20
14850;DHT22;7517;48.400;11.770;2023-08-07T09:45:26;18.90;62.30
14850;DHT22;7517;48.400;11.770;2023-08-07T09:47:59;18.90;62.10
14850;DHT22;7517;48.400;11.770;2023-08-07T09:50:27;19.00;62.10
14850;DHT22;7517;48.400;11.770;2023-08-07T09:52:55;19.00;62.90
14850;DHT22;7517;48.400;11.770;2023-08-07T09:55:25;19.10;63.10
14850;DHT22;7517;48.400;11.770;2023-08-07T09:57:54;19.10;62.60
14850;DHT22;7517;48.400;11.770;2023-08-07T10:00:21;19.20;63.10
14850;DHT22;7517;48.400;11.770;2023-08-07T10:02:49;19.20;63.10
14850;DHT22;7517;48.400;11.770;2023-08-07T10:05:17;19.30;62.50
14850;DHT22;7517;48.400;11.770;2023-08-07T10:07:46;19.30;62.10
14850;DHT22;7517;48.400;11.770;2023-08-07T10:10:15;19.40;61.60
14850;DHT22;7517;48.400;11.770;2023-08-07T10:12:45;19.40;61.60
14850;DHT22;7517;48.400;11.770;2023-08-07T10:15:14;19.40;61.60
14850;DHT22;7517;48.400;11.770;2023-08-07T10:17:42;19.50;61.40
14850;DHT22;7517;48.400;11.770;2023-08-07T10:20:11;19.50;61.60
14850;DHT22;7517;48.400;11.770;2023-08-07T10:22:40;19.60;61.40
14850;DHT22;7517;48.400;11.770;2023-08-07T10:25:09;19.60;60.50
14850;DHT22;7517;48.400;11.770;2023-08-07T10:27:40;19.60;60.30
14850;DHT22;7517;48.400;11.770;2023-08-07T10:30:14;19.60;59.70
14850;DHT22;7517;48.400;11.770;2023-08-07T10:32:44;19.60;59.40
14850;DHT22;7517;48.400;11.770;2023-08-07T10:35:23;19.60;59.40
14850;DHT22;7517;48.400;11.770;2023-08-07T10:37:52;19.70;59.30
14850;DHT22;7517;48.400;11.770;2023-08-07T10:40:20;19.70;59.60
14850;DHT22;7517;48.400;11.770;2023-08-07T10:42:52;19.70;59.50
14850;DHT22;7517;48.400;11.770;2023-08-07T10:45:27;19.70;59.40
14850;DHT22;7517;48.400;11.770;2023-08-07T10:48:02;19.70;59.40
14850;DHT22;7517;48.400;11.770;2023-08-07T10:50:34;19.80;60.40
14850;DHT22;7517;48.400;11.770;2023-08-07T10:53:03;19.80;60.00
14850;DHT22;7517;48.400;11.770;2023-08-07T10:55:44;19.90;60.60
14850;DHT22;7517;48.400;11.770;2023-08-07T10:58:22;20.00;59.80
14850;DHT22;7517;48.400;11.770;2023-08-07T11:00:52;20.10;59.20
14850;DHT22;7517;48.400;11.770;2023-08-07T11:03:44;20.30;59.40
14850;DHT22;7517;48.400;11.770;2023-08-07T11:06:11;20.40;59.40
14850;DHT22;7517;48.400;11.770;2023-08-07T11:08:38;20.40;59.20
14850;DHT22;7517;48.400;11.770;2023-08-07T11:11:07;20.60;59.50
14850;DHT22;7517;48.400;11.770;2023-08-07T11:13:35;20.70;59.20
14850;DHT22;7517;48.400;11.770;2023-08-07T11:16:05;20.70;59.00
14850;DHT22;7517;48.400;11.770;2023-08-07T11:18:33;20.80;59.30
14850;DHT22;7517;48.400;11.770;2023-08-07T11:21:03;20.90;58.90
14850;DHT22;7517;48.400;11.770;2023-08-07T11:23:31;21.00;58.90
14850;DHT22;7517;48.400;11.770;2023-08-07T11:25:58;21.10;58.80
14850;DHT22;7517;48.400;11.770;2023-08-07T11:28:25;21.20;58.40
14850;DHT22;7517;48.400;11.770;2023-08-07T11:30:53;21.30;57.80
14850;DHT22;7517;48.400;11.770;2023-08-07T11:33:23;21.30;57.90
14850;DHT22;7517;48.400;11.770;2023-08-07T11:35:52;21.40;57.30
14850;DHT22;7517;48.400;11.770;2023-08-07T11:38:30;21.40;57.10
14850;DHT22;7517;48.400;11.770;2023-08-07T11:41:00;21.50;56.10
14850;DHT22;7517;48.400;11.770;2023-08-07T11:43:28;21.50;56.70
14850;DHT22;7517;48.400;11.770;2023-08-07T11:45:57;21.40;56.30
14850;DHT22;7517;48.400;11.770;2023-08-07T11:48:28;21.40;56.80
14850;DHT22;7517;48.400;11.770;2023-08-07T11:50:57;21.40;56.60
14850;DHT22;7517;48.400;11.770;2023-08-07T11:53:27;21.40;56.70
14850;DHT22;7517;48.400;11.770;2023-08-07T11:55:56;21.40;56.60
14850;DHT22;7517;48.400;11.770;2023-08-07T11:58:27;21.30;56.30
14850;DHT22;7517;48.400;11.770;2023-08-07T12:01:03;21.30;55.90
14850;DHT22;7517;48.400;11.770;2023-08-07T12:03:35;21.30;55.50
14850;DHT22;7517;48.400;11.770;2023-08-07T12:06:06;21.30;54.60
14850;DHT22;7517;48.400;11.770;2023-08-07T12:08:35;21.30;55.10
14850;DHT22;7517;48.400;11.770;2023-08-07T12:11:05;21.40;55.10
14850;DHT22;7517;48.400;11.770;2023-08-07T12:13:37;21.40;55.40
14850;DHT22;7517;48.400;11.770;2023-08-07T12:16:05;21.40;55.60
14850;DHT22;7517;48.400;11.770;2023-08-07T12:18:35;21.50;55.70
14850;DHT22;7517;48.400;11.770;2023-08-07T12:21:05;21.50;55.00
14850;DHT22;7517;48.400;11.770;2023-08-07T12:23:34;21.60;54.70
14850;DHT22;7517;48.400;11.770;2023-08-07T12:26:03;21.60;54.50
14850;DHT22;7517;48.400;11.770;2023-08-07T12:28:32;21.70;54.80
14850;DHT22;7517;48.400;11.770;2023-08-07T12:31:02;21.70;55.20
14850;DHT22;7517;48.400;11.770;2023-08-07T12:33:30;21.80;55.10
14850;DHT22;7517;48.400;11.770;2023-08-07T12:35:59;21.80;53.90
14850;DHT22;7517;48.400;11.770;2023-08-07T12:38:27;21.80;53.70
14850;DHT22;7517;48.400;11.770;2023-08-07T12:40:55;21.90;54.00
14850;DHT22;7517;48.400;11.770;2023-08-07T12:43:23;21.90;53.90
14850;DHT22;7517;48.400;11.770;2023-08-07T12:45:50;21.90;54.00
14850;DHT22;7517;48.400;11.770;2023-08-07T12:48:18;21.90;53.60
14850;DHT22;7517;48.400;11.770;2023-08-07T12:50:45;21.90;54.30
14850;DHT22;7517;48.400;11.770;2023-08-07T12:53:15;22.00;53.80
14850;DHT22;7517;48.400;11.770;2023-08-07T12:55:42;21.90;53.40
14850;DHT22;7517;48.400;11.770;2023-08-07T12:58:09;22.00;53.80
14850;DHT22;7517;48.400;11.770;2023-08-07T13:00:36;22.00;53.70
14850;DHT22;7517;48.400;11.770;2023-08-07T13:03:03;22.00;53.80
14850;DHT22;7517;48.400;11.770;2023-08-07T13:05:31;22.00;53.90
14850;DHT22;7517;48.400;11.770;2023-08-07T13:07:58;22.00;53.80
14850;DHT22;7517;48.400;11.770;2023-08-07T13:10:27;22.00;54.00
14850;DHT22;7517;48.400;11.770;2023-08-07T13:12:56;22.00;54.10
14850;DHT22;7517;48.400;11.770;2023-08-07T13:15:24;22.00;54.10
14850;DHT22;7517;48.400;11.770;2023-08-07T13:17:52;22.00;54.10
14850;DHT22;7517;48.400;11.770;2023-08-07T13:20:19;22.00;54.20
14850;DHT22;7517;48.400;11.770;2023-08-07T13:22:47;22.00;54.40
14850;DHT22;7517;48.400;11.770;2023-08-07T13:25:14;22.00;54.80
14850;DHT22;7517;48.400;11.770;2023-08-07T13:27:43;22.00;55.40
14850;DHT22;7517;48.400;11.770;2023-08-07T13:30:10;22.00;54.80
14850;DHT22;7517;48.400;11.770;2023-08-07T13:32:38;22.10;54.50
14850;DHT22;7517;48.400;11.770;2023-08-07T13:35:07;22.10;54.50
14850;DHT22;7517;48.400;11.770;2023-08-07T13:37:34;22.10;54.40
14850;DHT22;7517;48.400;11.770;2023-08-07T13:40:04;22.10;54.00
14850;DHT22;7517;48.400;11.770;2023-08-07T13:42:33;22.10;53.80
14850;DHT22;7517;48.400;11.770;2023-08-07T13:45:02;22.10;53.90
14850;DHT22;7517;48.400;11.770;2023-08-07T13:47:30;22.10;53.50
14850;DHT22;7517;48.400;11.770;2023-08-07T13:49:57;22.10;53.00
14850;DHT22;7517;48.400;11.770;2023-08-07T13:52:24;22.10;53.50
14850;DHT22;7517;48.400;11.770;2023-08-07T13:54:51;22.10;53.70
14850;DHT22;7517;48.400;11.770;2023-08-07T13:57:19;22.00;53.70
14850;DHT22;7517;48.400;11.770;2023-08-07T13:59:46;22.00;53.50
14850;DHT22;7517;48.400;11.770;2023-08-07T14:02:14;22.00;53.20
14850;DHT22;7517;48.400;11.770;2023-08-07T14:04:41;22.00;52.90
14850;DHT22;7517;48.400;11.770;2023-08-07T14:07:10;22.00;52.50
14850;DHT22;7517;48.400;11.770;2023-08-07T14:09:38;22.00;52.20
14850;DHT22;7517;48.400;11.770;2023-08-07T14:12:06;22.10;52.00
14850;DHT22;7517;48.400;11.770;2023-08-07T14:14:34;22.10;52.30
14850;DHT22;7517;48.400;11.770;2023-08-07T14:17:02;22.10;52.10
14850;DHT22;7517;48.400;11.770;2023-08-07T14:19:31;22.10;52.10
14850;DHT22;7517;48.400;11.770;2023-08-07T14:21:58;22.10;51.40
14850;DHT22;7517;48.400;11.770;2023-08-07T14:24:25;22.10;51.70
14850;DHT22;7517;48.400;11.770;2023-08-07T14:26:52;22.10;51.30
14850;DHT22;7517;48.400;11.770;2023-08-07T14:29:19;22.10;51.20
14850;DHT22;7517;48.400;11.770;2023-08-07T14:31:47;22.10;51.30
14850;DHT22;7517;48.400;11.770;2023-08-07T14:34:14;22.10;51.70
14850;DHT22;7517;48.400;11.770;2023-08-07T14:36:43;22.10;51.10
14850;DHT22;7517;48.400;11.770;2023-08-07T14:39:10;22.10;50.70
14850;DHT22;7517;48.400;11.770;2023-08-07T14:41:39;22.10;50.70
14850;DHT22;7517;48.400;11.770;2023-08-07T14:44:06;22.00;51.10
14850;DHT22;7517;48.400;11.770;2023-08-07T14:46:34;22.00;51.30
14850;DHT22;7517;48.400;11.770;2023-08-07T14:49:01;22.00;51.20
14850;DHT22;7517;48.400;11.770;2023-08-07T14:51:28;22.00;51.00
14850;DHT22;7517;48.400;11.770;2023-08-07T14:53:57;22.00;51.10
14850;DHT22;7517;48.400;11.770;2023-08-07T14:56:24;22.00;51.30
14850;DHT22;7517;48.400;11.770;2023-08-07T14:58:51;22.00;51.30
14850;DHT22;7517;48.400;11.770;2023-08-07T15:01:19;22.00;50.90
14850;DHT22;7517;48.400;11.770;2023-08-07T15:03:46;22.00;51.00
14850;DHT22;7517;48.400;11.770;2023-08-07T15:06:13;22.00;51.60
14850;DHT22;7517;48.400;11.770;2023-08-07T15:08:40;21.90;50.60
14850;DHT22;7517;48.400;11.770;2023-08-07T15:11:10;21.90;51.00
14850;DHT22;7517;48.400;11.770;2023-08-07T15:13:38;21.90;51.00
14850;DHT22;7517;48.400;11.770;2023-08-07T15:16:05;21.90;51.10
14850;DHT22;7517;48.400;11.770;2023-08-07T15:18:33;21.80;51.30
14850;DHT22;7517;48.400;11.770;2023-08-07T15:21:01;21.80;51.40
14850;DHT22;7517;48.400;11.770;2023-08-07T15:23:28;21.80;51.50
14850;DHT22;7517;48.400;11.770;2023-08-07T15:25:56;21.80;51.90
14850;DHT22;7517;48.400;11.770;2023-08-07T15:28:24;21.80;52.10
14850;DHT22;7517;48.400;11.770;2023-08-07T15:30:52;21.80;52.00
14850;DHT22;7517;48.400;11.770;2023-08-07T15:33:20;21.80;52.70
14850;DHT22;7517;48.400;11.770;2023-08-07T15:35:47;21.70;52.00
14850;DHT22;7517;48.400;11.770;2023-08-07T15:38:17;21.70;52.10